Time;durP1;ratioP1;P1;durP2;ratioP2;P2;SDS_P1;SDS_P2;PMS_P1;PMS_P2;Temp;Humidity;BMP_temperature;BMP_pressure;BME280_temperature;BME280_humidity;BME280_pressure;Samples;Min_cycle;Max_cycle;Signal;HPM_P1;HPM_P2
2021/08/23 00:01:19;;;;;;;11.73;7.82;;;18.30;99.90;;;;;;4930148;28;38516;-79
2021/08/23 00:03:51;;;;;;;13.38;8.85;;;18.20;99.90;;;;;;4936785;28;37376;-80
2021/08/23 00:06:19;;;;;;;14.18;8.27;;;18.20;99.90;;;;;;4941019;28;37830;-80
2021/08/23 00:08:52;;;;;;;13.23;8.63;;;18.20;99.90;;;;;;4915949;29;38779;-80
2021/08/23 00:11:20;;;;;;;15.23;8.77;;;18.20;99.90;;;;;;4933102;29;38084;-80
2021/08/23 00:13:46;;;;;;;14.20;9.30;;;18.20;99.90;;;;;;4935236;29;36529;-79
2021/08/23 00:16:16;;;;;;;11.32;8.88;;;18.20;99.90;;;;;;4944725;28;38884;-79
2021/08/23 00:18:44;;;;;;;10.82;9.07;;;18.20;99.90;;;;;;4928906;29;37634;-80
2021/08/23 00:21:20;;;;;;;11.15;9.48;;;18.10;99.90;;;;;;4950493;28;37580;-80
2021/08/23 00:23:52;;;;;;;13.80;10.18;;;18.10;99.90;;;;;;4947335;29;35966;-80
2021/08/23 00:26:18;;;;;;;14.30;10.82;;;18.10;99.90;;;;;;4948339;28;39993;-80
2021/08/23 00:28:44;;;;;;;12.63;9.40;;;18.00;99.90;;;;;;4926723;28;38752;-79
2021/08/23 00:31:10;;;;;;;10.70;8.80;;;18.10;99.90;;;;;;4923737;29;38482;-78
2021/08/23 00:33:37;;;;;;;12.80;9.63;;;18.00;99.90;;;;;;4950719;28;38591;-77
2021/08/23 00:36:09;;;;;;;11.90;9.70;;;18.00;99.90;;;;;;4928483;28;37966;-77
2021/08/23 00:38:42;;;;;;;10.20;8.70;;;18.00;99.90;;;;;;4951851;28;38767;-79
2021/08/23 00:41:08;;;;;;;13.25;10.25;;;18.00;99.90;;;;;;4951508;29;38114;-79
2021/08/23 00:43:41;;;;;;;11.38;9.57;;;18.00;99.90;;;;;;4953071;28;38337;-80
2021/08/23 00:46:07;;;;;;;11.15;10.00;;;18.00;99.90;;;;;;4951006;28;38499;-79
2021/08/23 00:48:35;;;;;;;11.32;9.45;;;18.00;99.90;;;;;;4955920;28;39804;-79
2021/08/23 00:51:02;;;;;;;11.40;10.10;;;18.00;99.90;;;;;;4939933;28;38455;-79
2021/08/23 00:53:28;;;;;;;14.68;11.15;;;18.00;99.90;;;;;;4931788;29;47226;-79
2021/08/23 00:55:55;;;;;;;11.25;9.98;;;18.00;99.90;;;;;;4950585;28;38558;-79
2021/08/23 00:58:21;;;;;;;11.95;9.75;;;18.00;99.90;;;;;;4954187;28;38594;-78
2021/08/23 01:01:07;;;;;;;10.55;9.30;;;18.00;99.90;;;;;;4954524;28;36761;-80
2021/08/23 01:03:39;;;;;;;14.23;11.95;;;18.00;99.90;;;;;;4953559;28;48214;-80
2021/08/23 01:08:42;;;;;;;17.90;13.73;;;18.00;99.90;;;;;;4919013;28;20041;-78
2021/08/23 01:16:22;;;;;;;13.82;12.32;;;17.90;99.90;;;;;;5034484;23;20025;-78
2021/08/23 01:18:54;;;;;;;14.80;13.25;;;17.90;99.90;;;;;;4946451;28;38972;-78
2021/08/23 01:21:26;;;;;;;15.23;12.35;;;17.90;99.90;;;;;;4936187;28;38014;-79
2021/08/23 01:23:53;;;;;;;14.93;12.43;;;17.90;99.90;;;;;;4929775;28;37630;-79
2021/08/23 01:26:26;;;;;;;15.65;12.82;;;17.90;99.90;;;;;;4930702;28;40963;-77
2021/08/23 01:29:11;;;;;;;20.40;14.52;;;17.90;99.90;;;;;;4943698;28;38112;-78
2021/08/23 01:31:56;;;;;;;14.52;13.02;;;17.90;99.90;;;;;;4945598;28;50137;-80
2021/08/23 01:34:25;;;;;;;15.25;13.07;;;17.80;99.90;;;;;;4932807;28;38043;-79
2021/08/23 01:36:55;;;;;;;14.45;12.75;;;17.80;99.90;;;;;;4948095;28;40106;-79
2021/08/23 01:39:22;;;;;;;16.10;13.32;;;17.80;99.90;;;;;;4937208;28;37616;-79
2021/08/23 01:41:54;;;;;;;15.18;13.10;;;17.80;99.90;;;;;;4948918;28;39646;-78
2021/08/23 01:44:22;;;;;;;16.45;14.65;;;17.80;99.90;;;;;;4936835;28;37337;-79
2021/08/23 01:46:53;;;;;;;17.80;14.63;;;17.80;99.90;;;;;;4935386;29;37720;-79
2021/08/23 01:49:20;;;;;;;15.73;13.00;;;17.70;99.90;;;;;;4954827;28;39793;-80
2021/08/23 01:51:51;;;;;;;19.02;14.18;;;17.70;99.90;;;;;;4952165;28;37966;-80
2021/08/23 01:54:18;;;;;;;15.02;13.43;;;17.70;99.90;;;;;;4953308;28;38816;-79
2021/08/23 01:56:45;;;;;;;15.18;12.82;;;17.70;99.90;;;;;;4938201;28;37598;-79
2021/08/23 01:59:19;;;;;;;19.48;14.48;;;17.80;99.90;;;;;;4938618;29;37955;-78
2021/08/23 02:01:45;;;;;;;14.05;12.35;;;17.70;99.90;;;;;;4935432;29;39998;-79
2021/08/23 02:04:21;;;;;;;15.70;14.05;;;17.70;99.90;;;;;;4936390;29;36602;-79
2021/08/23 02:06:47;;;;;;;16.15;14.05;;;17.70;99.90;;;;;;4936539;29;39511;-79
2021/08/23 02:09:15;;;;;;;16.02;13.60;;;17.70;99.90;;;;;;4935739;29;37607;-79
2021/08/23 02:11:41;;;;;;;15.90;13.88;;;17.70;99.90;;;;;;4937246;28;37176;-79
2021/08/23 02:14:07;;;;;;;15.73;13.65;;;17.70;99.90;;;;;;4954558;28;39052;-78
2021/08/23 02:16:38;;;;;;;17.35;14.77;;;17.70;99.90;;;;;;4947564;28;39713;-79
2021/08/23 02:19:17;;;;;;;15.40;13.75;;;17.60;99.90;;;;;;4936551;28;39679;-78
2021/08/23 02:22:02;;;;;;;19.23;15.32;;;17.60;99.90;;;;;;4938560;28;37326;-79
2021/08/23 02:24:31;;;;;;;17.65;13.98;;;17.60;99.90;;;;;;4955574;28;49254;-79
2021/08/23 02:27:06;;;;;;;19.02;15.98;;;17.60;99.90;;;;;;4953723;28;40251;-79
2021/08/23 02:29:32;;;;;;;23.63;16.38;;;17.60;99.90;;;;;;4952894;28;49735;-79
2021/08/23 02:31:58;;;;;;;17.45;14.98;;;17.50;99.90;;;;;;4953361;28;37901;-79
2021/08/23 02:34:25;;;;;;;19.05;16.77;;;17.50;99.90;;;;;;4953354;28;38792;-77
2021/08/23 02:36:51;;;;;;;18.65;15.27;;;17.50;99.90;;;;;;4932433;29;39501;-79
2021/08/23 02:39:25;;;;;;;18.35;14.25;;;17.50;99.90;;;;;;4952299;28;39914;-80
2021/08/23 02:42:02;;;;;;;18.33;15.25;;;17.50;99.90;;;;;;4952626;28;39615;-78
2021/08/23 02:44:30;;;;;;;18.33;14.73;;;17.50;99.90;;;;;;4938280;28;48241;-78
2021/08/23 02:46:57;;;;;;;19.00;15.52;;;17.50;99.90;;;;;;4937786;28;38927;-79
2021/08/23 02:49:29;;;;;;;16.90;14.70;;;17.50;99.90;;;;;;4936090;28;38598;-79
2021/08/23 02:51:55;;;;;;;18.40;14.80;;;17.50;99.90;;;;;;4949245;28;39179;-79
2021/08/23 02:54:29;;;;;;;20.17;16.00;;;17.40;99.90;;;;;;4933861;29;39162;-79
2021/08/23 02:56:59;;;;;;;19.90;15.93;;;17.40;99.90;;;;;;4934292;28;37901;-79
2021/08/23 02:59:26;;;;;;;21.13;16.42;;;17.40;99.90;;;;;;4931086;29;38613;-78
2021/08/23 03:01:52;;;;;;;22.25;15.93;;;17.40;99.90;;;;;;4934307;28;38709;-79
2021/08/23 03:04:19;;;;;;;20.02;15.40;;;17.40;99.90;;;;;;4934511;29;37755;-80
2021/08/23 03:06:45;;;;;;;18.52;13.88;;;17.40;99.90;;;;;;4936665;28;38843;-79
2021/08/23 03:09:11;;;;;;;17.25;13.95;;;17.30;99.90;;;;;;4946769;28;39821;-79
2021/08/23 03:11:53;;;;;;;16.20;13.48;;;17.30;99.90;;;;;;4938979;28;37353;-79
2021/08/23 03:14:19;;;;;;;16.75;12.57;;;17.30;99.90;;;;;;4950992;28;38697;-79
2021/08/23 03:16:46;;;;;;;15.82;12.13;;;17.30;99.90;;;;;;4944363;28;38038;-80
2021/08/23 03:19:13;;;;;;;15.38;11.65;;;17.30;99.90;;;;;;4949157;28;39667;-79
2021/08/23 03:21:39;;;;;;;13.45;11.25;;;17.30;99.90;;;;;;4934853;28;38394;-79
2021/08/23 03:24:05;;;;;;;12.50;9.93;;;17.40;99.90;;;;;;4933072;29;37706;-79
2021/08/23 03:26:32;;;;;;;11.98;9.65;;;17.40;99.90;;;;;;4932549;29;37884;-79
2021/08/23 03:29:12;;;;;;;11.70;9.38;;;17.40;99.90;;;;;;4949489;28;38865;-80
2021/08/23 03:31:43;;;;;;;14.38;10.43;;;17.40;99.90;;;;;;4930658;29;48460;-80
2021/08/23 03:34:12;;;;;;;10.90;9.20;;;17.40;99.90;;;;;;4933293;28;40075;-79
2021/08/23 03:36:45;;;;;;;13.55;9.82;;;17.40;99.90;;;;;;4925878;29;38517;-78
2021/08/23 03:39:15;;;;;;;11.45;9.15;;;17.40;99.90;;;;;;4936347;28;39881;-79
2021/08/23 03:41:41;;;;;;;12.75;8.98;;;17.40;99.90;;;;;;4938352;29;37232;-79
2021/08/23 03:44:07;;;;;;;14.43;9.38;;;17.40;99.90;;;;;;4954623;28;37782;-79
2021/08/23 03:46:33;;;;;;;12.80;8.40;;;17.30;99.90;;;;;;4939398;28;38625;-79
2021/08/23 03:49:05;;;;;;;11.07;8.32;;;17.30;99.90;;;;;;4939910;29;39800;-80
2021/08/23 03:51:33;;;;;;;15.80;9.15;;;17.30;99.90;;;;;;4939094;28;48542;-79
2021/08/23 03:53:59;;;;;;;13.90;8.68;;;17.30;99.90;;;;;;4940675;29;37109;-80
2021/08/23 03:59:12;;;;;;;12.98;7.85;;;17.20;99.90;;;;;;4947750;23;20069;-79
2021/08/23 04:04:19;;;;;;;16.17;7.43;;;17.20;99.90;;;;;;5182791;23;20045;-79
2021/08/23 04:06:54;;;;;;;9.83;6.30;;;17.20;99.90;;;;;;4934528;29;40138;-79
2021/08/23 04:09:20;;;;;;;11.50;5.90;;;17.30;99.90;;;;;;4918787;29;40302;-79
2021/08/23 04:11:55;;;;;;;16.38;6.40;;;17.30;99.90;;;;;;4922118;29;38041;-80
2021/08/23 04:14:32;;;;;;;8.73;5.65;;;17.30;99.90;;;;;;4932760;29;37725;-80
2021/08/23 04:16:59;;;;;;;12.45;5.85;;;17.40;99.90;;;;;;4934818;29;39549;-80
2021/08/23 04:19:26;;;;;;;7.90;4.53;;;17.40;99.90;;;;;;4917976;29;38471;-80
2021/08/23 04:22:06;;;;;;;10.55;4.63;;;17.40;99.90;;;;;;4922365;29;38013;-80
2021/08/23 04:24:38;;;;;;;9.82;5.15;;;17.40;99.90;;;;;;4918164;29;49772;-80
2021/08/23 04:27:16;;;;;;;;;;;17.50;99.90;;;;;;4930588;29;41055;-80
2021/08/23 04:29:46;;;;;;;11.80;5.20;;;17.50;99.90;;;;;;4916544;29;38750;-79
2021/08/23 04:32:12;;;;;;;7.70;4.35;;;17.50;99.90;;;;;;4912216;29;38261;-80
2021/08/23 04:34:39;;;;;;;8.98;4.50;;;17.50;99.90;;;;;;4922218;29;37619;-80
2021/08/23 04:37:07;;;;;;;5.82;4.35;;;17.60;99.90;;;;;;4917825;29;38047;-80
2021/08/23 04:39:56;;;;;;;9.68;4.35;;;17.60;99.90;;;;;;4925403;29;38797;-81
2021/08/23 04:42:23;;;;;;;8.95;4.47;;;17.60;99.90;;;;;;4916178;28;38049;-79
2021/08/23 04:44:49;;;;;;;7.82;4.30;;;17.60;99.90;;;;;;5102652;23;38770;-80
2021/08/23 04:47:26;;;;;;;6.25;3.72;;;17.60;99.90;;;;;;4916275;29;38870;-80
2021/08/23 04:49:53;;;;;;;8.45;3.70;;;17.60;99.90;;;;;;4917938;29;39520;-80
2021/08/23 04:52:19;;;;;;;9.75;3.78;;;17.60;99.90;;;;;;4902815;29;38344;-79
2021/08/23 04:54:45;;;;;;;7.60;3.42;;;17.60;99.90;;;;;;4900832;29;36902;-80
2021/08/23 04:57:11;;;;;;;7.05;3.95;;;17.60;99.90;;;;;;4918871;29;39971;-79
2021/08/23 04:59:37;;;;;;;6.93;3.72;;;17.70;99.90;;;;;;4915671;29;38741;-79
2021/08/23 05:02:07;;;;;;;7.80;3.83;;;17.70;99.90;;;;;;4916915;29;39279;-79
2021/08/23 05:04:34;;;;;;;7.15;3.00;;;17.60;99.90;;;;;;4905800;29;37348;-80
2021/08/23 05:07:00;;;;;;;8.35;3.40;;;17.60;99.90;;;;;;4919561;29;40123;-80
2021/08/23 05:09:30;;;;;;;6.95;3.13;;;17.60;99.90;;;;;;4904662;29;37808;-80
2021/08/23 05:11:56;;;;;;;7.50;3.50;;;17.60;99.90;;;;;;4898420;29;38897;-79
2021/08/23 05:14:24;;;;;;;9.77;3.08;;;17.60;99.90;;;;;;4902849;29;37051;-80
2021/08/23 05:17:03;;;;;;;6.82;3.30;;;17.60;99.90;;;;;;4919576;28;38640;-79
2021/08/23 05:19:36;;;;;;;6.40;3.70;;;17.60;99.90;;;;;;4919705;29;50154;-79
2021/08/23 05:22:02;;;;;;;;;;;17.60;99.90;;;;;;4919214;29;38555;-80
2021/08/23 05:24:31;;;;;;;9.95;3.30;;;17.60;99.90;;;;;;4909449;29;37328;-79
2021/08/23 05:26:57;;;;;;;13.13;3.90;;;17.60;99.90;;;;;;4919578;29;40199;-80
2021/08/23 05:29:23;;;;;;;8.20;3.45;;;17.60;99.90;;;;;;4901091;28;38197;-80
2021/08/23 05:31:49;;;;;;;9.90;3.83;;;17.60;99.90;;;;;;5779332;23;38159;-79
2021/08/23 05:34:16;;;;;;;11.32;3.70;;;17.60;99.90;;;;;;4925853;28;34053;-79
2021/08/23 05:36:43;;;;;;;6.85;3.83;;;17.60;99.90;;;;;;4950561;28;39656;-79
2021/08/23 05:39:09;;;;;;;7.72;3.13;;;17.60;99.90;;;;;;4947139;28;38295;-79
2021/08/23 05:41:39;;;;;;;13.48;4.25;;;17.60;99.90;;;;;;4951089;28;38050;-78
2021/08/23 05:44:22;;;;;;;7.88;3.55;;;17.60;99.90;;;;;;4954822;28;37539;-80
2021/08/23 05:46:49;;;;;;;10.55;4.00;;;17.60;99.90;;;;;;4949224;28;38489;-79
2021/08/23 05:49:16;;;;;;;6.38;3.20;;;17.60;99.90;;;;;;4955601;28;39811;-79
2021/08/23 05:51:44;;;;;;;4.95;3.22;;;17.60;99.90;;;;;;4953867;28;38799;-79
2021/08/23 05:54:11;;;;;;;8.43;3.53;;;17.60;99.90;;;;;;4947461;28;36956;-78
2021/08/23 05:56:40;;;;;;;5.18;3.38;;;17.70;99.90;;;;;;4943098;28;38865;-79
2021/08/23 05:59:08;;;;;;;7.20;3.97;;;17.70;99.90;;;;;;4962712;28;38407;-77
2021/08/23 06:01:38;;;;;;;6.75;3.08;;;17.70;99.90;;;;;;4934177;29;38255;-78
2021/08/23 06:04:04;;;;;;;9.50;2.97;;;17.70;99.90;;;;;;4946875;28;38633;-78
2021/08/23 06:06:30;;;;;;;7.95;3.08;;;17.70;99.90;;;;;;4947560;28;40236;-79
2021/08/23 06:08:56;;;;;;;5.78;3.25;;;17.80;99.90;;;;;;4943200;28;39907;-79
2021/08/23 06:11:23;;;;;;;8.57;3.10;;;17.80;99.90;;;;;;4949297;28;39538;-79
2021/08/23 06:13:53;;;;;;;8.57;2.92;;;17.80;99.90;;;;;;4954051;28;38612;-79
2021/08/23 06:16:26;;;;;;;8.07;3.28;;;17.90;99.90;;;;;;4933438;28;39072;-78
2021/08/23 06:18:54;;;;;;;10.60;3.45;;;17.90;99.90;;;;;;4933284;28;37108;-80
2021/08/23 06:21:20;;;;;;;7.60;2.80;;;18.00;99.90;;;;;;4948762;28;37153;-80
2021/08/23 06:34:11;;;;;;;6.15;2.95;;;18.10;99.90;;;;;;5752052;23;20040;-80
2021/08/23 06:36:42;;;;;;;6.43;3.20;;;18.10;99.90;;;;;;4936651;28;39151;-80
2021/08/23 06:39:14;;;;;;;7.47;3.33;;;18.10;99.90;;;;;;4931527;28;39230;-80
2021/08/23 06:41:42;;;;;;;9.73;3.15;;;18.10;99.90;;;;;;5084174;23;39578;-80
2021/08/23 06:44:12;;;;;;;9.13;2.80;;;18.10;99.90;;;;;;4911991;29;37358;-79
2021/08/23 06:46:39;;;;;;;5.28;2.95;;;18.10;99.90;;;;;;5210123;23;38077;-79
2021/08/23 06:49:05;;;;;;;6.50;2.83;;;18.20;99.90;;;;;;4939556;29;38531;-79
2021/08/23 06:51:31;;;;;;;8.23;3.15;;;18.20;99.90;;;;;;4955301;28;39457;-80
2021/08/23 06:53:59;;;;;;;6.75;2.35;;;18.20;99.90;;;;;;4934171;29;36759;-79
2021/08/23 06:56:56;;;;;;;4.35;2.67;;;18.20;99.90;;;;;;4945083;28;39583;-79
2021/08/23 06:59:32;;;;;;;5.53;2.90;;;18.30;99.90;;;;;;4906736;29;38203;-79
2021/08/23 07:41:12;;;;;;;7.30;2.47;;;19.10;99.90;;;;;;5479648;23;20138;-79
2021/08/23 07:46:43;;;;;;;9.10;2.78;;;19.50;99.90;;;;;;5049991;23;20043;-80
2021/08/23 07:49:14;;;;;;;5.95;2.40;;;19.70;99.90;;;;;;4918817;28;37755;-80
2021/08/23 08:02:09;;;;;;;5.53;2.33;;;19.60;99.90;;;;;;4785668;23;20041;-80
2021/08/23 08:04:37;;;;;;;8.32;3.10;;;19.60;99.90;;;;;;4903033;29;36612;-79
2021/08/23 08:07:03;;;;;;;7.70;2.88;;;19.60;99.90;;;;;;4872421;29;38142;-79
2021/08/23 08:09:29;;;;;;;6.93;2.72;;;19.60;99.90;;;;;;4903210;29;37694;-78
2021/08/23 08:11:56;;;;;;;4.63;2.30;;;19.70;99.90;;;;;;4891889;29;38142;-80
2021/08/23 08:14:23;;;;;;;7.78;2.90;;;20.00;99.90;;;;;;4906501;29;37731;-79
2021/08/23 08:16:49;;;;;;;6.65;2.83;;;20.00;99.90;;;;;;4904249;29;37813;-80
2021/08/23 08:19:16;;;;;;;7.85;3.08;;;19.80;99.90;;;;;;4907176;29;39152;-78
2021/08/23 08:21:42;;;;;;;4.72;2.45;;;19.60;99.90;;;;;;4962091;23;37740;-77
2021/08/23 08:24:08;;;;;;;6.03;2.70;;;19.40;99.90;;;;;;4900949;29;37871;-79
2021/08/23 08:26:34;;;;;;;3.58;2.40;;;19.30;99.90;;;;;;5048141;23;38828;-79
2021/08/23 08:29:00;;;;;;;4.65;2.28;;;19.40;99.90;;;;;;4909779;29;36399;-78
2021/08/23 08:31:26;;;;;;;5.72;2.80;;;19.50;99.90;;;;;;4900295;29;39013;-80
2021/08/23 08:33:53;;;;;;;7.72;2.92;;;19.90;99.90;;;;;;5002257;23;37457;-78
2021/08/23 08:36:20;;;;;;;6.78;2.47;;;20.40;99.90;;;;;;4945372;28;37079;-80
2021/08/23 08:38:50;;;;;;;8.52;2.20;;;20.40;99.90;;;;;;4942796;28;36462;-79
2021/08/23 08:41:17;;;;;;;6.53;2.05;;;20.20;99.90;;;;;;4950774;28;37866;-79
2021/08/23 08:43:44;;;;;;;4.28;2.90;;;19.80;99.90;;;;;;4968489;28;40286;-80
2021/08/23 08:46:12;;;;;;;6.88;2.50;;;19.70;99.90;;;;;;4974011;28;38774;-80
2021/08/23 08:51:14;;;;;;;7.30;2.10;;;19.80;99.90;;;;;;5338531;23;20050;-80
2021/08/23 08:53:46;;;;;;;4.28;1.75;;;20.00;99.90;;;;;;4977627;28;39461;-80
2021/08/23 08:56:12;;;;;;;5.22;2.10;;;20.10;99.90;;;;;;4980253;28;38140;-80
2021/08/23 08:58:38;;;;;;;4.15;2.42;;;20.30;99.90;;;;;;4969385;28;37384;-79
2021/08/23 09:01:06;;;;;;;3.80;1.65;;;20.40;99.90;;;;;;4965477;28;39119;-79
2021/08/23 09:03:32;;;;;;;6.03;2.35;;;20.40;99.90;;;;;;4995563;28;38617;-79
2021/08/23 09:06:01;;;;;;;7.18;2.47;;;20.50;99.90;;;;;;4980500;28;36878;-79
2021/08/23 09:08:29;;;;;;;7.88;2.05;;;20.60;99.90;;;;;;5004732;28;47882;-79
2021/08/23 09:11:08;;;;;;;4.78;2.35;;;20.60;99.90;;;;;;5006026;28;38879;-79
2021/08/23 09:13:34;;;;;;;6.35;2.38;;;20.50;99.90;;;;;;4987865;28;47091;-79
2021/08/23 09:16:01;;;;;;;4.95;2.00;;;20.30;99.90;;;;;;4982873;28;37411;-79
2021/08/23 09:18:28;;;;;;;5.25;2.10;;;20.30;99.90;;;;;;4996086;28;37584;-79
2021/08/23 09:20:58;;;;;;;4.97;1.60;;;20.30;99.90;;;;;;5005428;28;39417;-80
2021/08/23 09:23:35;;;;;;;2.92;1.80;;;20.60;99.90;;;;;;4974287;28;39946;-80
2021/08/23 09:26:09;;;;;;;6.95;2.30;;;21.10;99.90;;;;;;5006574;28;36921;-79
2021/08/23 09:28:38;;;;;;;5.50;1.95;;;21.30;99.90;;;;;;4989018;28;47184;-80
2021/08/23 09:31:04;;;;;;;5.18;2.00;;;21.70;99.90;;;;;;4979198;28;38455;-78
2021/08/23 09:33:46;;;;;;;6.80;2.47;;;22.10;99.90;;;;;;5003124;28;39923;-78
2021/08/23 09:36:19;;;;;;;4.75;1.92;;;22.10;99.90;;;;;;4993810;28;39235;-78
2021/08/23 09:39:03;;;;;;;6.55;2.42;;;22.10;99.90;;;;;;4988721;28;35570;-79
2021/08/23 09:41:30;;;;;;;7.30;2.13;;;22.00;99.90;;;;;;4966302;28;46845;-77
2021/08/23 09:44:02;;;;;;;3.67;1.83;;;21.50;99.90;;;;;;4971960;28;37144;-79
2021/08/23 09:46:34;;;;;;;11.38;2.47;;;21.60;99.90;;;;;;4982218;28;48885;-79
2021/08/23 09:49:14;;;;;;;5.63;2.00;;;21.90;99.90;;;;;;4980234;28;36290;-81
2021/08/23 09:51:48;;;;;;;3.65;2.08;;;22.00;99.90;;;;;;4953195;28;48400;-79
2021/08/23 09:54:16;;;;;;;5.60;2.03;;;21.80;99.90;;;;;;4971739;28;38034;-80
2021/08/23 09:56:42;;;;;;;4.47;2.20;;;21.50;99.90;;;;;;4979763;28;38533;-80
2021/08/23 09:59:18;;;;;;;3.70;1.95;;;21.30;99.90;;;;;;4987661;28;37295;-79
2021/08/23 10:02:03;;;;;;;;;;;21.40;99.90;;;;;;4985203;28;39125;-80
2021/08/23 10:04:31;;;;;;;5.40;2.08;;;21.90;99.90;;;;;;4973190;28;48603;-78
2021/08/23 10:07:00;;;;;;;3.67;1.88;;;22.40;99.90;;;;;;5238229;23;37351;-79
2021/08/23 10:09:32;;;;;;;5.07;1.92;;;22.40;99.90;;;;;;4965115;28;37139;-78
2021/08/23 10:11:59;;;;;;;3.10;1.67;;;22.00;99.90;;;;;;4961671;28;41002;-79
2021/08/23 10:14:27;;;;;;;3.50;2.17;;;21.90;99.90;;;;;;4972668;28;38511;-80
2021/08/23 10:24:42;;;;;;;4.03;1.80;;;21.70;99.90;;;;;;5317391;23;20052;-79
2021/08/23 10:27:35;;;;;;;4.68;1.95;;;21.60;99.90;;;;;;4961065;28;38853;-80
2021/08/23 10:32:40;;;;;;;6.80;1.83;;;21.70;99.90;;;;;;5650178;23;20032;-79
2021/08/23 10:48:47;;;;;;;6.93;2.60;;;22.70;99.90;;;;;;5043465;23;20040;-77
2021/08/23 10:51:39;;;;;;;6.32;1.92;;;22.70;99.90;;;;;;4944343;28;37638;-79
2021/08/23 10:54:36;;;;;;;2.72;1.35;;;22.90;99.90;;;;;;4933763;28;40600;-79
2021/08/23 10:57:11;;;;;;;5.80;2.10;;;23.20;99.90;;;;;;4940492;28;40376;-79
2021/08/23 11:00:09;;;;;;;3.78;1.77;;;23.10;99.90;;;;;;5226027;23;40077;-79
2021/08/23 11:02:39;;;;;;;4.47;1.73;;;23.20;99.90;;;;;;4920467;29;47337;-78
2021/08/23 11:28:09;;;;;;;4.57;1.60;;;23.90;99.90;;;;;;4958086;23;20040;-78
2021/08/23 11:30:40;;;;;;;6.28;1.65;;;23.90;99.90;;;;;;4932503;28;37454;-77
2021/08/23 11:51:27;;;;;;;8.88;1.80;;;24.20;99.90;;;;;;5392090;23;20049;-78
2021/08/23 11:53:53;;;;;;;2.13;1.20;;;24.30;99.90;;;;;;4925467;29;38355;-79
2021/08/23 11:56:20;;;;;;;3.92;1.40;;;24.30;99.90;;;;;;4931647;28;38732;-78
2021/08/23 11:58:46;;;;;;;3.63;1.35;;;24.20;99.90;;;;;;4916251;29;38216;-79
2021/08/23 12:01:14;;;;;;;7.53;2.30;;;24.20;99.90;;;;;;4919848;29;37514;-77
2021/08/23 12:03:42;;;;;;;7.00;1.70;;;24.40;99.90;;;;;;4931244;28;37756;-78
2021/08/23 12:06:10;;;;;;;2.42;1.40;;;24.50;99.90;;;;;;4931273;28;38140;-78
2021/08/23 12:08:38;;;;;;;5.28;1.35;;;24.50;99.90;;;;;;4937293;28;38751;-79
2021/08/23 12:11:12;;;;;;;2.85;1.60;;;24.50;99.90;;;;;;4942296;28;36876;-77
2021/08/23 12:13:49;;;;;;;5.15;1.25;;;24.50;99.90;;;;;;4935598;29;37711;-79
2021/08/23 12:16:31;;;;;;;1.77;1.35;;;24.50;99.90;;;;;;4930319;28;37709;-79
2021/08/23 12:19:06;;;;;;;3.58;1.50;;;24.30;99.90;;;;;;4931942;28;38239;-78
2021/08/23 12:21:33;;;;;;;2.10;0.95;;;24.10;99.90;;;;;;4933464;29;48727;-79
2021/08/23 12:24:05;;;;;;;3.28;1.27;;;24.20;99.90;;;;;;4934588;28;37936;-78
2021/08/23 12:26:36;;;;;;;2.88;1.08;;;24.40;99.90;;;;;;4932060;28;47137;-78
2021/08/23 12:29:18;;;;;;;2.33;1.20;;;24.40;99.90;;;;;;4934490;29;38000;-77
2021/08/23 12:31:53;;;;;;;2.63;1.15;;;24.50;99.90;;;;;;4936116;28;48818;-77
2021/08/23 12:34:22;;;;;;;4.47;1.38;;;24.80;99.90;;;;;;4932553;28;36613;-78
2021/08/23 12:36:49;;;;;;;4.53;1.60;;;24.70;99.90;;;;;;4932989;29;36054;-78
2021/08/23 12:39:16;;;;;;;1.90;1.10;;;24.70;99.90;;;;;;4935661;28;39984;-77
2021/08/23 12:41:44;;;;;;;2.47;1.50;;;24.60;99.90;;;;;;4937785;28;39306;-77
2021/08/23 12:44:10;;;;;;;2.75;1.30;;;24.60;99.90;;;;;;4927463;28;39438;-78
2021/08/23 12:46:36;;;;;;;2.80;1.20;;;24.50;99.90;;;;;;4934064;28;37392;-79
2021/08/23 12:49:03;;;;;;;4.93;1.30;;;24.70;99.90;;;;;;4932769;28;38847;-76
2021/08/23 12:51:30;;;;;;;3.92;1.52;;;24.80;99.90;;;;;;4891866;28;1179773;-77
2021/08/23 12:53:56;;;;;;;3.67;1.58;;;24.60;99.90;;;;;;4936821;28;38951;-76
2021/08/23 12:56:22;;;;;;;1.95;1.38;;;24.70;99.90;;;;;;4934144;28;36238;-78
2021/08/23 12:58:49;;;;;;;4.10;1.20;;;24.90;99.90;;;;;;4931351;28;39812;-78
2021/08/23 13:01:16;;;;;;;3.85;1.48;;;24.80;99.90;;;;;;4932900;28;40223;-79
2021/08/23 13:03:42;;;;;;;2.85;1.10;;;24.70;99.90;;;;;;4934809;28;37821;-78
2021/08/23 13:06:09;;;;;;;4.03;1.25;;;24.80;99.90;;;;;;4930105;28;38248;-77
2021/08/23 13:08:35;;;;;;;2.92;1.52;;;24.80;99.90;;;;;;4933865;28;38815;-78
2021/08/23 13:11:01;;;;;;;3.28;1.20;;;24.70;99.90;;;;;;4940409;28;38469;-79
2021/08/23 13:13:27;;;;;;;2.83;1.05;;;24.60;99.90;;;;;;4917342;29;38022;-79
2021/08/23 13:15:53;;;;;;;6.22;1.15;;;24.60;99.90;;;;;;4928163;28;37419;-78
2021/08/23 13:18:19;;;;;;;2.90;1.20;;;24.70;99.90;;;;;;4922844;29;40087;-77
2021/08/23 13:20:45;;;;;;;3.20;1.58;;;24.80;99.90;;;;;;4929912;29;38469;-78
2021/08/23 13:23:13;;;;;;;1.92;1.23;;;24.60;99.90;;;;;;4933422;28;38196;-79
2021/08/23 13:25:40;;;;;;;1.98;1.30;;;24.60;99.90;;;;;;4914336;29;37448;-79
2021/08/23 13:28:11;;;;;;;3.33;1.38;;;24.80;99.90;;;;;;4935715;28;38644;-79
2021/08/23 13:30:41;;;;;;;4.93;1.70;;;25.00;99.90;;;;;;4932053;28;39798;-80
2021/08/23 13:33:08;;;;;;;2.67;1.27;;;25.30;99.90;;;;;;4932475;28;38132;-80
2021/08/23 13:35:39;;;;;;;5.03;1.40;;;25.30;99.90;;;;;;4933949;28;37151;-79
2021/08/23 13:38:09;;;;;;;3.72;1.58;;;25.10;99.90;;;;;;4919153;28;40244;-79
2021/08/23 13:40:38;;;;;;;2.53;1.20;;;25.00;99.90;;;;;;4932997;28;38033;-79
2021/08/23 13:43:08;;;;;;;4.75;1.67;;;25.10;99.90;;;;;;4927626;28;39394;-79
2021/08/23 13:45:38;;;;;;;4.10;1.65;;;24.80;99.90;;;;;;4939470;28;36931;-79
2021/08/23 13:48:05;;;;;;;2.45;1.17;;;24.50;99.90;;;;;;4933259;28;39697;-76
2021/08/23 13:50:32;;;;;;;3.90;1.27;;;24.40;99.90;;;;;;4944952;28;39296;-77
2021/08/23 13:52:58;;;;;;;6.03;1.80;;;24.60;99.90;;;;;;4935182;28;38522;-78
2021/08/23 13:55:24;;;;;;;4.97;1.50;;;24.70;99.90;;;;;;4920178;28;38494;-78
2021/08/23 13:57:50;;;;;;;4.38;1.50;;;24.50;99.90;;;;;;4926406;29;40234;-79
2021/08/23 14:00:16;;;;;;;3.75;1.80;;;24.20;99.90;;;;;;4936056;28;39454;-79
2021/08/23 14:02:42;;;;;;;4.18;1.35;;;23.90;99.90;;;;;;4913287;29;36703;-78
2021/08/23 14:05:09;;;;;;;2.85;1.35;;;24.00;99.90;;;;;;4938259;28;37253;-79
2021/08/23 14:07:35;;;;;;;3.80;1.75;;;23.90;99.90;;;;;;4940943;28;39772;-78
2021/08/23 14:10:02;;;;;;;2.03;1.27;;;24.00;99.90;;;;;;4923700;29;39027;-78
2021/08/23 14:12:28;;;;;;;2.47;1.40;;;24.40;99.90;;;;;;4938039;28;47293;-79
2021/08/23 14:14:55;;;;;;;2.00;1.17;;;24.80;99.90;;;;;;4942473;29;36952;-79
2021/08/23 14:17:21;;;;;;;2.92;1.48;;;25.00;99.90;;;;;;4945547;28;40155;-81
2021/08/23 14:19:50;;;;;;;3.03;1.45;;;25.20;99.90;;;;;;4944198;29;38773;-81
2021/08/23 14:22:17;;;;;;;1.65;1.20;;;24.80;99.90;;;;;;4920968;28;38149;-80
2021/08/23 14:24:43;;;;;;;4.47;1.80;;;24.40;99.90;;;;;;4940141;28;39299;-80
2021/08/23 14:27:09;;;;;;;3.28;1.50;;;24.20;99.90;;;;;;4930010;28;37741;-77
2021/08/23 14:29:35;;;;;;;5.07;1.60;;;24.00;99.90;;;;;;4947221;28;36759;-77
2021/08/23 14:32:02;;;;;;;3.05;1.50;;;24.00;99.90;;;;;;4945080;28;38169;-79
2021/08/23 14:34:28;;;;;;;3.17;1.58;;;24.10;99.90;;;;;;5041276;23;49048;-79
2021/08/23 14:36:56;;;;;;;3.08;1.30;;;24.20;99.90;;;;;;4948293;28;37974;-78
2021/08/23 14:39:22;;;;;;;3.85;1.50;;;24.30;99.90;;;;;;4941532;28;38880;-79
2021/08/23 14:41:48;;;;;;;3.83;1.55;;;24.00;99.90;;;;;;4943090;28;38336;-78
2021/08/23 14:44:14;;;;;;;3.92;1.52;;;23.70;99.90;;;;;;4932401;28;37693;-78
2021/08/23 14:46:42;;;;;;;4.10;1.70;;;23.30;99.90;;;;;;4935008;28;38503;-78
2021/08/23 14:49:08;;;;;;;2.25;1.50;;;23.10;99.90;;;;;;4931579;28;39060;-78
2021/08/23 14:51:36;;;;;;;5.05;1.65;;;23.20;99.90;;;;;;4933779;28;38724;-78
2021/08/23 14:54:07;;;;;;;4.10;1.73;;;23.50;99.90;;;;;;4929455;28;38237;-78
2021/08/23 14:56:33;;;;;;;3.70;1.70;;;23.80;99.90;;;;;;4923603;28;37792;-78
2021/08/23 14:58:59;;;;;;;2.85;1.67;;;24.00;99.90;;;;;;4938373;29;37177;-78
2021/08/23 15:01:26;;;;;;;2.95;1.40;;;23.80;99.90;;;;;;4930779;28;36007;-79
2021/08/23 15:03:58;;;;;;;7.88;1.83;;;23.30;99.90;;;;;;4947033;28;37423;-79
2021/08/23 15:06:25;;;;;;;2.05;1.52;;;23.10;99.90;;;;;;4955590;23;38648;-79
2021/08/23 15:08:52;;;;;;;3.22;1.73;;;23.40;99.90;;;;;;4939172;28;37211;-78
2021/08/23 15:11:19;;;;;;;3.13;1.60;;;23.70;99.90;;;;;;4935380;28;36876;-77
2021/08/23 15:13:45;;;;;;;4.43;1.77;;;23.90;99.90;;;;;;4937007;28;37247;-78
2021/08/23 15:16:12;;;;;;;4.20;1.52;;;23.90;99.90;;;;;;4955285;28;39176;-78
2021/08/23 15:18:40;;;;;;;2.38;1.67;;;23.90;99.90;;;;;;4958026;28;38157;-78